Time;durP1;ratioP1;P1;durP2;ratioP2;P2;SDS_P1;SDS_P2;PMS_P1;PMS_P2;Temp;Humidity;BMP_temperature;BMP_pressure;BME280_temperature;BME280_humidity;BME280_pressure;Samples;Min_cycle;Max_cycle;Signal;HPM_P1;HPM_P2
2022/03/08 00:01:56;;;;;;;;;;;;;;;-9.50;72.41;101863.81;4993803;28;19965;-78
2022/03/08 00:04:24;;;;;;;;;;;;;;;-9.48;72.29;101859.22;4993169;28;20379;-77
2022/03/08 00:06:49;;;;;;;;;;;;;;;-9.44;71.91;101865.97;4993082;28;19987;-77
2022/03/08 00:09:15;;;;;;;;;;;;;;;-9.43;72.23;101862.34;4992411;28;19925;-78
2022/03/08 00:11:40;;;;;;;;;;;;;;;-9.42;72.93;101864.03;4991888;28;19926;-77
2022/03/08 00:14:06;;;;;;;;;;;;;;;-9.44;72.32;101871.28;4991922;28;20446;-78
2022/03/08 00:16:31;;;;;;;;;;;;;;;-9.46;72.35;101874.06;4992009;28;19921;-78
2022/03/08 00:18:57;;;;;;;;;;;;;;;-9.46;72.08;101874.06;4993345;28;19926;-79
2022/03/08 00:21:22;;;;;;;;;;;;;;;-9.48;72.89;101876.00;4993085;28;19934;-76
2022/03/08 00:23:47;;;;;;;;;;;;;;;-9.47;72.34;101871.53;4992134;28;19926;-78
2022/03/08 00:26:13;;;;;;;;;;;;;;;-9.47;72.14;101871.53;4991587;28;19933;-77
2022/03/08 00:28:39;;;;;;;;;;;;;;;-9.52;71.81;101866.59;4992743;28;20024;-77
2022/03/08 00:31:06;;;;;;;;;;;;;;;-9.53;72.29;101861.41;4975914;28;19929;-81
2022/03/08 00:33:31;;;;;;;;;;;;;;;-9.52;72.61;101869.25;5001912;28;19926;-78
2022/03/08 00:35:57;;;;;;;;;;;;;;;-9.56;72.63;101865.13;4991630;28;19925;-81
2022/03/08 00:38:23;;;;;;;;;;;;;;;-9.59;72.45;101876.00;4993069;28;19983;-78
2022/03/08 00:40:48;;;;;;;;;;;;;;;-9.64;72.52;101864.03;4991704;28;19953;-77
2022/03/08 00:43:14;;;;;;;;;;;;;;;-9.68;72.36;101883.84;4989349;28;20459;-80
2022/03/08 00:45:40;;;;;;;;;;;;;;;-9.75;72.99;101880.81;4990046;28;20385;-78
2022/03/08 00:48:05;;;;;;;;;;;;;;;-9.80;72.08;101881.16;4992617;28;20404;-77
2022/03/08 00:50:32;;;;;;;;;;;;;;;-9.76;72.67;101871.16;4991128;28;20305;-81
2022/03/08 00:52:58;;;;;;;;;;;;;;;-9.77;72.04;101864.16;4980796;28;19932;-81
2022/03/08 00:55:24;;;;;;;;;;;;;;;-9.79;72.40;101866.94;4992890;28;19930;-82
2022/03/08 00:57:50;;;;;;;;;;;;;;;-9.80;72.49;101853.78;5003855;28;19983;-83
2022/03/08 01:00:16;;;;;;;;;;;;;;;-9.85;72.26;101855.94;4992646;28;19960;-81
2022/03/08 01:02:43;;;;;;;;;;;;;;;-9.92;72.45;101849.41;4992415;28;19930;-81
2022/03/08 01:05:10;;;;;;;;;;;;;;;-9.95;72.51;101860.28;4992802;28;19965;-81
2022/03/08 01:07:35;;;;;;;;;;;;;;;-9.96;72.41;101867.38;4992467;28;19969;-81
2022/03/08 01:10:01;;;;;;;;;;;;;;;-9.96;72.86;101853.28;4991791;28;19957;-81
2022/03/08 01:12:27;;;;;;;;;;;;;;;-9.96;72.76;101856.78;4991485;28;19925;-81
2022/03/08 01:14:53;;;;;;;;;;;;;;;-9.99;72.76;101857.00;4991342;28;20323;-81
2022/03/08 01:17:18;;;;;;;;;;;;;;;-9.99;72.32;101853.50;4991701;28;19933;-81
2022/03/08 01:19:44;;;;;;;;;;;;;;;-10.05;72.76;101850.38;4991231;28;19926;-81
2022/03/08 01:22:10;;;;;;;;;;;;;;;-10.09;73.18;101843.59;4991814;28;19930;-81
2022/03/08 01:24:36;;;;;;;;;;;;;;;-10.14;72.40;101848.41;4992585;28;19933;-81
2022/03/08 01:27:01;;;;;;;;;;;;;;;-10.15;72.77;101849.38;4975200;28;19926;-81
2022/03/08 01:29:27;;;;;;;;;;;;;;;-10.18;73.14;101849.63;4991657;28;19933;-81
2022/03/08 01:31:52;;;;;;;;;;;;;;;-10.22;73.13;101850.84;4989800;28;19922;-81
2022/03/08 01:34:17;;;;;;;;;;;;;;;-10.23;72.81;101837.72;4998604;28;20024;-83
2022/03/08 01:36:43;;;;;;;;;;;;;;;-10.30;72.57;101855.03;4996278;28;19930;-81
2022/03/08 01:39:09;;;;;;;;;;;;;;;-10.32;72.97;101852.50;4989661;28;19932;-81
2022/03/08 01:41:34;;;;;;;;;;;;;;;-10.32;72.63;101851.66;4992054;28;19926;-81
2022/03/08 01:44:00;;;;;;;;;;;;;;;-10.38;72.95;101852.97;4971494;28;20397;-81
2022/03/08 01:46:25;;;;;;;;;;;;;;;-10.46;72.21;101853.53;4982338;28;19926;-81
2022/03/08 01:48:51;;;;;;;;;;;;;;;-10.53;72.78;101854.97;4974988;28;19925;-82
2022/03/08 01:51:16;;;;;;;;;;;;;;;-10.55;72.44;101850.75;4990826;28;20308;-82
2022/03/08 01:53:42;;;;;;;;;;;;;;;-10.58;72.34;101856.28;4991052;28;20402;-81
2022/03/08 01:56:08;;;;;;;;;;;;;;;-10.62;72.41;101866.25;4992337;28;20444;-82
2022/03/08 01:58:34;;;;;;;;;;;;;;;-10.66;72.89;101868.28;4992178;28;19929;-82
2022/03/08 02:00:59;;;;;;;;;;;;;;;-10.69;72.58;101871.19;4991770;28;20466;-82
2022/03/08 02:03:25;;;;;;;;;;;;;;;-10.69;72.53;101870.34;4997193;28;20029;-82
2022/03/08 02:05:50;;;;;;;;;;;;;;;-10.70;73.00;101863.34;5007385;28;19933;-81
2022/03/08 02:08:15;;;;;;;;;;;;;;;-10.69;73.15;101868.53;4991726;28;19925;-81
2022/03/08 02:10:41;;;;;;;;;;;;;;;-10.70;72.82;101873.94;4990369;28;20392;-81
2022/03/08 02:13:06;;;;;;;;;;;;;;;-10.73;73.00;101879.47;4991957;28;19925;-81
2022/03/08 02:15:32;;;;;;;;;;;;;;;-10.71;73.24;101875.75;4991745;28;19930;-80
2022/03/08 02:17:58;;;;;;;;;;;;;;;-10.72;72.70;101871.41;4991538;28;19926;-80
2022/03/08 02:20:24;;;;;;;;;;;;;;;-10.73;73.12;101866.22;4994636;28;20464;-81
2022/03/08 02:22:50;;;;;;;;;;;;;;;-10.75;73.21;101870.81;4994701;28;19926;-82
2022/03/08 02:25:15;;;;;;;;;;;;;;;-10.79;72.65;101875.47;4995032;28;19972;-81
2022/03/08 02:27:42;;;;;;;;;;;;;;;-10.86;73.06;101871.56;4995744;28;19930;-81
2022/03/08 02:30:08;;;;;;;;;;;;;;;-10.91;72.82;101876.38;4995489;28;19957;-82
2022/03/08 02:32:33;;;;;;;;;;;;;;;-10.97;72.19;101888.25;4995452;28;19956;-82
2022/03/08 02:35:08;;;;;;;;;;;;;;;-11.01;72.32;101881.50;4995459;28;19926;-82
2022/03/08 02:37:38;;;;;;;;;;;;;;;-11.06;72.31;101885.44;4993314;28;20036;-82
2022/03/08 02:40:05;;;;;;;;;;;;;;;-11.09;72.34;101885.66;4995595;28;20348;-81
2022/03/08 02:42:30;;;;;;;;;;;;;;;-11.12;72.76;101884.06;4995613;28;19925;-81
2022/03/08 02:44:56;;;;;;;;;;;;;;;-11.12;72.05;101884.06;4990003;28;19926;-81
2022/03/08 02:47:21;;;;;;;;;;;;;;;-11.12;72.76;101883.22;4995061;28;19957;-81
2022/03/08 02:49:47;;;;;;;;;;;;;;;-11.14;72.63;101885.13;4993885;28;19980;-81
2022/03/08 02:52:12;;;;;;;;;;;;;;;-11.16;72.39;101881.75;4995407;28;19921;-81
2022/03/08 02:54:37;;;;;;;;;;;;;;;-11.21;73.00;101897.13;4995077;28;20376;-81
2022/03/08 02:57:03;;;;;;;;;;;;;;;-11.26;73.04;101898.31;4995193;28;19930;-80
2022/03/08 02:59:29;;;;;;;;;;;;;;;-11.29;73.56;101903.81;4993979;28;19948;-80
2022/03/08 03:01:54;;;;;;;;;;;;;;;-11.30;73.21;101907.41;4995532;28;19992;-80
2022/03/08 03:04:20;;;;;;;;;;;;;;;-11.33;72.96;101910.28;4994878;28;19961;-81
2022/03/08 03:06:45;;;;;;;;;;;;;;;-11.36;72.64;101899.06;4994993;28;19926;-81
2022/03/08 03:09:10;;;;;;;;;;;;;;;-11.39;72.94;101880.75;5009393;28;19933;-81
2022/03/08 03:11:37;;;;;;;;;;;;;;;-11.38;73.50;101882.44;5005968;28;19926;-81
2022/03/08 03:14:02;;;;;;;;;;;;;;;-11.35;73.61;101898.97;4991323;28;20308;-80
2022/03/08 03:16:28;;;;;;;;;;;;;;;-11.34;73.48;101886.56;4994461;28;20388;-80
2022/03/08 03:18:53;;;;;;;;;;;;;;;-11.34;73.14;101875.97;4994757;28;19929;-80
2022/03/08 03:21:19;;;;;;;;;;;;;;;-11.34;73.67;101890.06;4993452;28;20117;-80
2022/03/08 03:23:44;;;;;;;;;;;;;;;-11.37;73.84;101884.97;4994286;28;20034;-80
2022/03/08 03:26:10;;;;;;;;;;;;;;;-11.38;73.87;101885.09;4994487;28;19964;-80
2022/03/08 03:28:36;;;;;;;;;;;;;;;-11.37;74.37;101884.13;4994320;28;19968;-80
2022/03/08 03:31:01;;;;;;;;;;;;;;;-11.37;74.34;101884.13;4994283;28;20320;-80
2022/03/08 03:33:26;;;;;;;;;;;;;;;-11.34;74.18;101881.25;4992796;28;19926;-81
2022/03/08 03:35:52;;;;;;;;;;;;;;;-11.34;74.12;101886.56;4979080;28;19948;-81
2022/03/08 03:38:18;;;;;;;;;;;;;;;-11.32;74.71;101893.44;4993755;28;20410;-81
2022/03/08 03:40:43;;;;;;;;;;;;;;;-11.30;74.69;101891.53;4993324;28;20396;-81
2022/03/08 03:43:08;;;;;;;;;;;;;;;-11.26;74.82;101898.31;4994182;28;19933;-82
2022/03/08 03:45:34;;;;;;;;;;;;;;;-11.25;74.34;101909.75;4993732;28;20053;-82
2022/03/08 03:47:59;;;;;;;;;;;;;;;-11.20;74.30;101901.47;4993771;28;19925;-82
2022/03/08 03:50:25;;;;;;;;;;;;;;;-11.17;74.76;101901.25;4994031;28;20404;-82
2022/03/08 03:52:50;;;;;;;;;;;;;;;-11.14;74.59;101901.88;4993140;28;20569;-81
2022/03/08 03:55:16;;;;;;;;;;;;;;;-11.13;74.13;101905.38;4994005;28;19972;-81
2022/03/08 03:57:41;;;;;;;;;;;;;;;-11.15;74.35;101904.63;4994057;28;20368;-81
2022/03/08 04:00:08;;;;;;;;;;;;;;;-11.18;74.73;101900.41;4994088;28;19934;-81
2022/03/08 04:02:37;;;;;;;;;;;;;;;-11.22;74.74;101898.09;4990986;28;20016;-82
2022/03/08 04:05:02;;;;;;;;;;;;;;;-11.24;74.29;101900.00;4992816;28;20073;-83
2022/03/08 04:07:28;;;;;;;;;;;;;;;-11.26;74.81;101908.91;4993345;28;19968;-83
2022/03/08 04:09:53;;;;;;;;;;;;;;;-11.28;74.78;101910.84;4993732;28;19929;-83
2022/03/08 04:12:18;;;;;;;;;;;;;;;-11.31;74.88;101915.47;4993490;28;19933;-83
2022/03/08 04:14:44;;;;;;;;;;;;;;;-11.33;74.66;101918.22;4993405;28;19926;-82
2022/03/08 04:17:09;;;;;;;;;;;;;;;-11.34;74.32;101916.53;4997625;28;19972;-81
2022/03/08 04:19:35;;;;;;;;;;;;;;;-11.35;74.86;101914.00;4993117;28;19925;-82
2022/03/08 04:22:00;;;;;;;;;;;;;;;-11.35;74.25;101924.59;4993188;28;19933;-81
2022/03/08 04:24:27;;;;;;;;;;;;;;;-11.36;75.20;101926.41;4993594;28;19973;-82
2022/03/08 04:26:52;;;;;;;;;;;;;;;-11.34;75.15;101923.66;4993663;28;19933;-82
2022/03/08 04:29:18;;;;;;;;;;;;;;;-11.34;74.31;101919.19;5003052;28;19926;-82
2022/03/08 04:31:43;;;;;;;;;;;;;;;-11.36;74.41;101915.81;4993497;28;19953;-82
2022/03/08 04:34:09;;;;;;;;;;;;;;;-11.36;74.36;101915.81;4992127;28;19985;-83
2022/03/08 04:36:34;;;;;;;;;;;;;;;-11.31;75.17;101923.41;4991931;28;19925;-82
2022/03/08 04:39:00;;;;;;;;;;;;;;;-11.31;74.68;101915.47;4991536;28;19925;-82
2022/03/08 04:41:25;;;;;;;;;;;;;;;-11.31;75.06;101924.28;4992916;28;19996;-82
2022/03/08 04:43:51;;;;;;;;;;;;;;;-11.29;75.02;101926.81;4978952;28;20119;-81
2022/03/08 04:46:16;;;;;;;;;;;;;;;-11.28;75.03;101932.03;4986526;28;19925;-83
2022/03/08 04:48:42;;;;;;;;;;;;;;;-11.23;75.63;101933.50;4990194;28;20020;-81
2022/03/08 04:51:08;;;;;;;;;;;;;;;-11.22;75.16;101930.72;4989768;28;19929;-82
2022/03/08 04:53:34;;;;;;;;;;;;;;;-11.13;75.29;101927.41;4988540;28;19933;-81
2022/03/08 04:55:59;;;;;;;;;;;;;;;-10.99;74.85;101931.72;4990380;28;20325;-81
2022/03/08 04:58:24;;;;;;;;;;;;;;;-10.66;74.78;101934.59;4990625;28;19932;-81
2022/03/08 05:00:50;;;;;;;;;;;;;;;-10.13;74.20;101928.88;4990927;28;19929;-81
2022/03/08 05:03:15;;;;;;;;;;;;;;;-9.54;73.90;101928.78;4992606;28;19979;-81
2022/03/08 05:05:41;;;;;;;;;;;;;;;-9.11;72.31;101928.91;4991310;28;19969;-81
2022/03/08 05:08:06;;;;;;;;;;;;;;;-8.82;70.75;101926.56;4978762;28;19961;-81
2022/03/08 05:10:32;;;;;;;;;;;;;;;-8.50;69.57;101921.28;4987447;28;20411;-81
2022/03/08 05:12:59;;;;;;;;;;;;;;;-8.26;68.20;101934.34;4989101;28;19933;-81
2022/03/08 05:15:25;;;;;;;;;;;;;;;-7.92;66.99;101927.06;4989251;28;20542;-80
2022/03/08 05:17:51;;;;;;;;;;;;;;;-7.58;66.63;101910.84;4988941;28;20007;-80
2022/03/08 05:20:16;;;;;;;;;;;;;;;-7.34;64.84;101911.38;4988703;28;19945;-81
2022/03/08 05:22:42;;;;;;;;;;;;;;;-7.11;64.20;101907.56;4988716;28;20387;-81
2022/03/08 05:25:07;;;;;;;;;;;;;;;-6.94;62.43;101910.53;4989587;28;19930;-80
2022/03/08 05:27:34;;;;;;;;;;;;;;;-6.74;61.82;101922.97;4993303;28;19989;-81
2022/03/08 05:29:59;;;;;;;;;;;;;;;-6.50;61.43;101920.75;4994272;28;19925;-80
2022/03/08 05:32:24;;;;;;;;;;;;;;;-6.83;60.27;101921.97;4992761;28;19925;-81
2022/03/08 05:34:50;;;;;;;;;;;;;;;-6.80;60.41;101916.34;5002047;28;19926;-81
2022/03/08 05:37:16;;;;;;;;;;;;;;;-6.36;59.71;101916.00;4991190;28;19999;-81
2022/03/08 05:39:42;;;;;;;;;;;;;;;-6.35;60.25;101917.69;4990042;28;19932;-81
2022/03/08 05:42:08;;;;;;;;;;;;;;;-6.40;59.09;101913.63;4990363;28;19929;-80
2022/03/08 05:44:33;;;;;;;;;;;;;;;-6.76;60.08;101903.59;4972481;28;19930;-80
2022/03/08 05:46:59;;;;;;;;;;;;;;;-7.20;59.67;101905.69;4989664;28;20016;-81
2022/03/08 05:49:24;;;;;;;;;;;;;;;-7.55;60.22;101911.44;4990078;28;20415;-80
2022/03/08 05:51:50;;;;;;;;;;;;;;;-7.93;61.03;101904.06;4989748;28;20029;-81
2022/03/08 05:54:15;;;;;;;;;;;;;;;-8.25;61.41;101926.25;4988501;28;20023;-81
2022/03/08 05:56:40;;;;;;;;;;;;;;;-8.48;62.80;101935.31;5000117;28;19964;-81
2022/03/08 05:59:06;;;;;;;;;;;;;;;-8.58;62.84;101939.69;4990312;28;19933;-80
2022/03/08 06:01:31;;;;;;;;;;;;;;;-8.58;62.65;101931.72;4992506;28;19925;-81
2022/03/08 06:03:57;;;;;;;;;;;;;;;-8.55;63.75;101919.00;4992319;28;19981;-81
2022/03/08 06:06:22;;;;;;;;;;;;;;;-8.52;62.91;101928.53;4993060;28;19930;-79
2022/03/08 06:08:49;;;;;;;;;;;;;;;-8.52;63.42;101944.50;4972005;28;19933;-80
2022/03/08 06:11:15;;;;;;;;;;;;;;;-8.43;63.80;101942.91;4988969;28;19941;-80
2022/03/08 06:13:41;;;;;;;;;;;;;;;-8.41;64.02;101933.84;4989140;28;19948;-80
2022/03/08 06:16:06;;;;;;;;;;;;;;;-8.30;63.27;101930.25;4996746;28;19965;-81
2022/03/08 06:18:32;;;;;;;;;;;;;;;-8.34;64.31;101929.69;4989742;28;19938;-81
2022/03/08 06:20:57;;;;;;;;;;;;;;;-8.51;63.60;101944.38;4987896;28;19988;-81
2022/03/08 06:23:23;;;;;;;;;;;;;;;-8.61;63.96;101945.28;4988539;28;19972;-80
2022/03/08 06:25:48;;;;;;;;;;;;;;;-8.67;64.74;101951.94;4988688;28;19925;-81
2022/03/08 06:28:14;;;;;;;;;;;;;;;-8.74;64.76;101950.72;4996315;28;19934;-82
2022/03/08 06:30:39;;;;;;;;;;;;;;;-8.80;64.69;101959.22;4989206;28;19930;-80
2022/03/08 06:33:05;;;;;;;;;;;;;;;-8.84;64.71;101965.75;4990655;28;19926;-81
2022/03/08 06:35:30;;;;;;;;;;;;;;;-8.99;65.60;101959.00;4992288;28;19929;-82
2022/03/08 06:37:55;;;;;;;;;;;;;;;-9.15;65.06;101962.03;4991149;28;19965;-82
2022/03/08 06:40:21;;;;;;;;;;;;;;;-9.23;65.62;101967.91;4991831;28;20020;-82
2022/03/08 06:42:47;;;;;;;;;;;;;;;-9.35;65.84;101965.41;4971264;28;20009;-81
2022/03/08 06:45:12;;;;;;;;;;;;;;;-9.49;66.14;101972.63;4984767;28;19926;-82
2022/03/08 06:47:41;;;;;;;;;;;;;;;-9.52;66.34;101967.56;4985627;28;20389;-81
2022/03/08 06:50:06;;;;;;;;;;;;;;;-9.55;66.17;101970.41;4991254;28;19926;-82
2022/03/08 06:52:32;;;;;;;;;;;;;;;-9.58;66.60;101968.00;4987782;28;19988;-81
2022/03/08 06:54:57;;;;;;;;;;;;;;;-9.59;66.71;101968.13;4987376;28;20093;-81
2022/03/08 06:57:24;;;;;;;;;;;;;;;-9.59;67.32;101958.34;4990451;28;20407;-80
2022/03/08 06:59:49;;;;;;;;;;;;;;;-9.60;67.51;101961.97;4978462;28;19952;-81
2022/03/08 07:02:15;;;;;;;;;;;;;;;-9.61;67.63;101960.28;4999538;28;20012;-81
2022/03/08 07:04:40;;;;;;;;;;;;;;;-9.59;66.97;101963.66;4991688;28;19925;-82
2022/03/08 07:07:06;;;;;;;;;;;;;;;-9.55;67.37;101958.94;4993660;28;19926;-81
2022/03/08 07:09:32;;;;;;;;;;;;;;;-9.57;67.17;101967.03;4992939;28;19925;-81
2022/03/08 07:11:58;;;;;;;;;;;;;;;-9.51;67.95;101965.75;4994870;28;20039;-80
2022/03/08 07:14:24;;;;;;;;;;;;;;;-9.41;67.57;101977.34;4993158;28;20420;-80
2022/03/08 07:16:50;;;;;;;;;;;;;;;-9.35;67.04;101973.38;4991453;28;20345;-82
2022/03/08 07:19:15;;;;;;;;;;;;;;;-9.38;67.22;101960.28;4993366;28;19937;-81
2022/03/08 07:21:41;;;;;;;;;;;;;;;-9.36;67.42;101958.41;4991244;28;19926;-81
2022/03/08 07:24:07;;;;;;;;;;;;;;;-9.31;67.35;101964.19;4994179;28;20305;-81
2022/03/08 07:26:32;;;;;;;;;;;;;;;-9.16;67.28;101960.34;4994676;28;19925;-81
2022/03/08 07:28:58;;;;;;;;;;;;;;;-9.01;67.57;101961.78;4994234;28;19925;-82
2022/03/08 07:31:23;;;;;;;;;;;;;;;-8.80;67.00;101963.69;5001638;28;19945;-81
2022/03/08 07:33:49;;;;;;;;;;;;;;;-8.70;67.50;101964.63;4991445;28;19925;-81
2022/03/08 07:36:14;;;;;;;;;;;;;;;-8.64;66.03;101958.81;4994610;28;20597;-82
2022/03/08 07:38:39;;;;;;;;;;;;;;;-8.56;66.13;101961.69;4992728;28;20467;-82
2022/03/08 07:41:05;;;;;;;;;;;;;;;-8.54;65.96;101963.25;4993109;28;19980;-82
2022/03/08 07:43:31;;;;;;;;;;;;;;;-8.45;65.38;101958.19;4993199;28;19925;-80
2022/03/08 07:45:56;;;;;;;;;;;;;;;-8.43;66.36;101949.09;4992117;28;19925;-81
2022/03/08 07:48:22;;;;;;;;;;;;;;;-8.42;65.64;101953.44;4976236;28;20348;-81
2022/03/08 07:50:48;;;;;;;;;;;;;;;-8.44;65.26;101947.41;4993374;28;19933;-82
2022/03/08 07:53:14;;;;;;;;;;;;;;;-8.34;65.63;101950.97;4993898;28;19941;-80
2022/03/08 07:55:39;;;;;;;;;;;;;;;-8.19;65.40;101940.84;5007016;28;19968;-82
2022/03/08 07:58:05;;;;;;;;;;;;;;;-8.23;64.13;101942.09;4993301;28;19926;-82
2022/03/08 08:00:30;;;;;;;;;;;;;;;-8.29;64.71;101932.78;4993823;28;19940;-81
2022/03/08 08:02:56;;;;;;;;;;;;;;;-8.25;64.99;101931.56;4992785;28;20109;-82
2022/03/08 08:05:22;;;;;;;;;;;;;;;-8.26;64.48;101929.88;4994011;28;19980;-82
2022/03/08 08:07:47;;;;;;;;;;;;;;;-8.23;65.21;101934.09;4994359;28;19926;-81
2022/03/08 08:10:13;;;;;;;;;;;;;;;-8.24;65.21;101924.41;4976726;28;19930;-81
2022/03/08 08:12:38;;;;;;;;;;;;;;;-8.27;64.17;101928.19;4993316;28;19929;-81
2022/03/08 08:15:04;;;;;;;;;;;;;;;-8.30;64.51;101920.47;4991645;28;19926;-81
2022/03/08 08:17:30;;;;;;;;;;;;;;;-8.38;64.54;101917.59;4990300;28;20508;-84
2022/03/08 08:19:56;;;;;;;;;;;;;;;-8.46;65.08;101914.75;4992792;28;19936;-82
2022/03/08 08:22:21;;;;;;;;;;;;;;;-8.44;65.13;101914.63;4993144;28;20012;-82
2022/03/08 08:24:47;;;;;;;;;;;;;;;-8.47;65.22;101921.03;4991913;28;20511;-81
2022/03/08 08:27:12;;;;;;;;;;;;;;;-8.41;65.01;101914.34;4993019;28;19925;-82
2022/03/08 08:29:38;;;;;;;;;;;;;;;-8.38;64.94;101919.41;4993148;28;19949;-82
2022/03/08 08:32:03;;;;;;;;;;;;;;;-8.29;65.77;101918.63;4992395;28;19932;-82
2022/03/08 08:34:29;;;;;;;;;;;;;;;-8.19;64.45;101908.91;4992066;28;19925;-81
2022/03/08 08:36:54;;;;;;;;;;;;;;;-8.21;64.92;101906.38;4989149;28;20467;-83
2022/03/08 08:39:20;;;;;;;;;;;;;;;-8.08;64.26;101911.50;4989087;28;20508;-83
2022/03/08 08:41:45;;;;;;;;;;;;;;;-8.01;64.23;101919.81;4993187;28;19925;-83
2022/03/08 08:44:11;;;;;;;;;;;;;;;-7.96;63.73;101918.47;4992680;28;19926;-82
2022/03/08 08:46:37;;;;;;;;;;;;;;;-7.99;63.41;101915.22;4992159;28;20024;-80
2022/03/08 08:49:02;;;;;;;;;;;;;;;-7.89;64.33;101910.81;4989285;28;20019;-82
2022/03/08 08:51:28;;;;;;;;;;;;;;;-7.77;64.06;101923.09;4990493;28;20463;-81
2022/03/08 08:53:54;;;;;;;;;;;;;;;-7.65;63.31;101924.69;4977655;28;20009;-82
2022/03/08 08:56:19;;;;;;;;;;;;;;;-7.59;63.23;101926.00;4984017;28;20416;-80
2022/03/08 08:58:45;;;;;;;;;;;;;;;-7.71;62.68;101932.38;4995578;28;20826;-81
2022/03/08 09:01:10;;;;;;;;;;;;;;;-7.84;62.60;101929.91;5011009;28;19973;-81
2022/03/08 09:03:35;;;;;;;;;;;;;;;-7.89;63.01;101921.47;4999423;28;19953;-80
2022/03/08 09:06:01;;;;;;;;;;;;;;;-7.80;62.82;101922.50;4975458;28;19933;-82
2022/03/08 09:08:26;;;;;;;;;;;;;;;-7.60;62.55;101932.31;4992697;28;19925;-83
2022/03/08 09:10:52;;;;;;;;;;;;;;;-7.32;62.39;101925.41;4992350;28;19952;-81
2022/03/08 09:13:18;;;;;;;;;;;;;;;-7.12;62.73;101926.34;4992718;28;19926;-80
2022/03/08 09:15:43;;;;;;;;;;;;;;;-7.02;61.66;101924.56;4990917;28;19929;-82
2022/03/08 09:18:09;;;;;;;;;;;;;;;-6.87;61.44;101927.72;4992618;28;19929;-81
2022/03/08 09:20:34;;;;;;;;;;;;;;;-6.83;61.09;101923.78;4991493;28;19930;-82
2022/03/08 09:23:00;;;;;;;;;;;;;;;-6.78;60.90;101910.84;4992433;28;19925;-80
2022/03/08 09:25:26;;;;;;;;;;;;;;;-6.71;60.18;101914.69;4991308;28;19926;-80
2022/03/08 09:27:52;;;;;;;;;;;;;;;-6.69;59.73;101913.56;4991038;28;19926;-82
2022/03/08 09:30:17;;;;;;;;;;;;;;;-6.64;59.80;101918.47;4992302;28;19925;-83
2022/03/08 09:32:43;;;;;;;;;;;;;;;-6.79;59.81;101928.69;5001872;28;19932;-82
2022/03/08 09:35:08;;;;;;;;;;;;;;;-6.92;59.22;101922.78;4991673;28;20442;-85
2022/03/08 09:37:34;;;;;;;;;;;;;;;-6.82;59.92;101928.97;4990797;28;20389;-88
2022/03/08 09:40:00;;;;;;;;;;;;;;;-6.82;60.09;101926.31;4990603;28;19976;-84
2022/03/08 09:42:25;;;;;;;;;;;;;;;-6.79;59.65;101927.84;4991859;28;19929;-82
2022/03/08 09:44:51;;;;;;;;;;;;;;;-6.60;60.18;101927.06;4992246;28;19930;-83
2022/03/08 09:47:17;;;;;;;;;;;;;;;-6.40;59.93;101929.63;4988350;28;19926;-84
2022/03/08 09:49:42;;;;;;;;;;;;;;;-6.21;59.24;101939.47;4990431;28;20035;-86
2022/03/08 09:52:07;;;;;;;;;;;;;;;-6.26;59.34;101924.84;4999315;28;19925;-82
2022/03/08 09:54:33;;;;;;;;;;;;;;;-6.29;59.03;101933.13;4988882;28;19925;-78
2022/03/08 09:56:59;;;;;;;;;;;;;;;-6.27;59.18;101933.84;4990946;28;19925;-81
2022/03/08 09:59:29;;;;;;;;;;;;;;;-6.14;58.82;101929.06;4990058;28;20625;-85
2022/03/08 10:01:55;;;;;;;;;;;;;;;-6.02;58.75;101927.94;4992280;28;19965;-79
2022/03/08 10:04:20;;;;;;;;;;;;;;;-5.92;58.23;101927.94;4997333;28;19975;-80
2022/03/08 10:06:50;;;;;;;;;;;;;;;-5.90;58.19;101926.81;4991761;28;19985;-81
2022/03/08 10:09:20;;;;;;;;;;;;;;;-5.94;57.59;101925.41;4991238;28;19965;-82
2022/03/08 10:11:49;;;;;;;;;;;;;;;-5.87;58.26;101923.00;4989936;28;19934;-80
2022/03/08 10:14:26;;;;;;;;;;;;;;;-5.71;57.86;101925.06;4990255;28;19965;-80
2022/03/08 10:16:53;;;;;;;;;;;;;;;-5.60;57.68;101922.22;4990714;28;20395;-83
2022/03/08 10:19:18;;;;;;;;;;;;;;;-5.49;57.40;101919.38;4998710;28;19964;-84
2022/03/08 10:21:47;;;;;;;;;;;;;;;-5.40;57.17;101921.16;5011917;28;19980;-83
2022/03/08 10:24:16;;;;;;;;;;;;;;;-5.33;57.24;101918.78;4990663;28;19926;-84
2022/03/08 10:26:44;;;;;;;;;;;;;;;-5.33;56.36;101911.59;4975535;28;19926;-84
2022/03/08 10:29:10;;;;;;;;;;;;;;;-5.54;55.98;101922.50;5007311;28;19921;-85
2022/03/08 10:31:35;;;;;;;;;;;;;;;-5.63;56.81;101918.00;4991265;28;20336;-86
2022/03/08 10:34:05;;;;;;;;;;;;;;;-5.61;56.80;101915.19;4990389;28;20017;-89
2022/03/08 10:36:31;;;;;;;;;;;;;;;-5.76;56.46;101914.78;4992711;28;19926;-89
2022/03/08 10:39:04;;;;;;;;;;;;;;;-5.82;56.81;101908.19;4980880;28;19990;-89
2022/03/08 10:41:29;;;;;;;;;;;;;;;-5.71;56.94;101912.56;4989657;28;19925;-86
2022/03/08 10:43:55;;;;;;;;;;;;;;;-5.81;55.81;101909.03;4996111;28;20296;-86
2022/03/08 10:46:21;;;;;;;;;;;;;;;-5.84;57.14;101901.31;4978235;28;20028;-88
2022/03/08 10:48:47;;;;;;;;;;;;;;;-5.70;57.69;101900.03;4992222;28;19933;-85
2022/03/08 10:51:16;;;;;;;;;;;;;;;-5.68;56.95;101898.88;4994968;28;19929;-86
2022/03/08 10:53:42;;;;;;;;;;;;;;;-5.61;57.02;101894.63;4993351;28;19926;-87
2022/03/08 10:56:08;;;;;;;;;;;;;;;-5.54;56.90;101900.28;5001243;28;19926;-90
2022/03/08 10:58:34;;;;;;;;;;;;;;;-5.53;57.03;101899.28;4995812;28;19952;-89
2022/03/08 11:01:01;;;;;;;;;;;;;;;-5.57;56.93;101892.50;5010002;28;20392;-85
2022/03/08 11:03:27;;;;;;;;;;;;;;;-5.49;56.91;101895.31;4973908;28;19926;-83
2022/03/08 11:05:54;;;;;;;;;;;;;;;-5.42;56.55;101898.25;4976280;28;19926;-85
2022/03/08 11:08:20;;;;;;;;;;;;;;;-5.27;57.17;101894.94;4978515;28;19926;-84
2022/03/08 11:10:46;;;;;;;;;;;;;;;-5.07;56.63;101884.16;4979215;28;19936;-83
2022/03/08 11:13:12;;;;;;;;;;;;;;;-5.02;55.94;101879.22;5003127;28;19933;-86
2022/03/08 11:15:38;;;;;;;;;;;;;;;-4.95;55.57;101880.28;4995341;28;19933;-86
2022/03/08 11:18:05;;;;;;;;;;;;;;;-5.24;54.23;101873.25;4994669;28;19948;-90
2022/03/08 11:20:30;;;;;;;;;;;;;;;-5.26;54.75;101875.22;4994255;28;20015;-85
2022/03/08 11:22:57;;;;;;;;;;;;;;;-5.35;55.36;101876.13;4983191;28;19930;-85
2022/03/08 11:25:26;;;;;;;;;;;;;;;-5.38;55.22;101879.09;4982638;28;20016;-86
2022/03/08 11:27:52;;;;;;;;;;;;;;;-5.33;54.63;101874.13;4985216;28;19926;-87
2022/03/08 11:30:20;;;;;;;;;;;;;;;-5.32;54.75;101865.13;4994803;28;19933;-87
2022/03/08 11:32:49;;;;;;;;;;;;;;;-5.26;54.96;101869.03;4974045;28;19930;-86
2022/03/08 11:35:17;;;;;;;;;;;;;;;-5.16;55.04;101862.66;4984899;28;20057;-85
2022/03/08 11:37:46;;;;;;;;;;;;;;;-5.13;54.18;101866.03;4999503;28;19956;-85
2022/03/08 11:40:12;;;;;;;;;;;;;;;-5.20;54.14;101860.44;4991942;28;19964;-83
2022/03/08 11:42:42;;;;;;;;;;;;;;;-5.30;53.84;101864.97;4992839;28;20019;-89
2022/03/08 11:45:12;;;;;;;;;;;;;;;-5.56;55.02;101867.44;4992501;28;19953;-87
2022/03/08 11:47:42;;;;;;;;;;;;;;;-5.56;55.77;101860.28;4994048;28;19926;-88
2022/03/08 11:50:21;;;;;;;;;;;;;;;-5.44;55.29;101858.28;4990455;28;19934;-85
2022/03/08 11:52:50;;;;;;;;;;;;;;;-5.35;55.96;101853.88;5008718;28;19926;-89
2022/03/08 11:55:17;;;;;;;;;;;;;;;-5.33;54.90;101860.75;4979332;28;19929;-88
2022/03/08 11:57:42;;;;;;;;;;;;;;;-5.35;55.44;101873.44;4993340;28;19932;-86
2022/03/08 12:00:27;;;;;;;;;;;;;;;-5.47;55.24;101863.91;4992738;28;19929;-82
2022/03/08 12:02:54;;;;;;;;;;;;;;;-5.46;55.58;101855.75;4988398;28;19925;-83
2022/03/08 12:05:38;;;;;;;;;;;;;;;-5.38;54.63;101859.50;4992357;28;19976;-84
2022/03/08 12:08:23;;;;;;;;;;;;;;;-5.44;55.41;101847.56;4994504;28;19933;-80
2022/03/08 12:10:49;;;;;;;;;;;;;;;-5.55;54.67;101851.28;4984903;28;19948;-81
2022/03/08 12:13:14;;;;;;;;;;;;;;;-5.61;54.53;101854.53;4996721;28;20301;-82
2022/03/08 12:15:59;;;;;;;;;;;;;;;-5.65;54.55;101855.81;4992366;28;20377;-81
2022/03/08 12:18:34;;;;;;;;;;;;;;;-5.69;55.12;101853.59;4992871;28;19960;-87
2022/03/08 12:21:21;;;;;;;;;;;;;;;-5.97;54.07;101844.69;4989170;28;19941;-89
2022/03/08 12:24:10;;;;;;;;;;;;;;;-6.19;55.26;101844.03;4996930;28;20393;-84
2022/03/08 12:26:40;;;;;;;;;;;;;;;-6.19;55.53;101838.69;4992427;28;20013;-89
2022/03/08 12:29:05;;;;;;;;;;;;;;;-6.25;55.15;101833.03;4993636;28;19930;-89